sensor_id;sensor_type;location;lat;lon;timestamp;P1;durP1;ratioP1;P2;durP2;ratioP2
72115;SDS011;59991;52.140;5.428;2022-09-13T00:00:09;5.95;;;4.90;;
72115;SDS011;59991;52.140;5.428;2022-09-13T00:00:41;4.82;;;4.43;;
72115;SDS011;59991;52.140;5.428;2022-09-13T00:01:14;5.47;;;4.97;;
72115;SDS011;59991;52.140;5.428;2022-09-13T00:01:46;5.10;;;4.60;;
72115;SDS011;59991;52.140;5.428;2022-09-13T00:02:17;4.60;;;4.20;;
72115;SDS011;59991;52.140;5.428;2022-09-13T00:02:49;4.82;;;4.43;;
72115;SDS011;59991;52.140;5.428;2022-09-13T00:03:20;5.55;;;4.70;;
72115;SDS011;59991;52.140;5.428;2022-09-13T00:03:52;5.50;;;5.00;;
72115;SDS011;59991;52.140;5.428;2022-09-13T00:04:24;5.40;;;4.68;;
72115;SDS011;59991;52.140;5.428;2022-09-13T00:04:55;5.15;;;4.72;;
72115;SDS011;59991;52.140;5.428;2022-09-13T00:05:27;6.80;;;4.88;;
72115;SDS011;59991;52.140;5.428;2022-09-13T00:06:09;5.20;;;4.70;;
72115;SDS011;59991;52.140;5.428;2022-09-13T00:06:45;6.15;;;5.55;;
72115;SDS011;59991;52.140;5.428;2022-09-13T00:07:16;6.72;;;5.20;;
72115;SDS011;59991;52.140;5.428;2022-09-13T00:07:48;5.30;;;4.80;;
72115;SDS011;59991;52.140;5.428;2022-09-13T00:08:19;5.65;;;5.15;;
72115;SDS011;59991;52.140;5.428;2022-09-13T00:08:51;5.20;;;4.70;;
72115;SDS011;59991;52.140;5.428;2022-09-13T00:09:24;5.88;;;5.38;;
72115;SDS011;59991;52.140;5.428;2022-09-13T00:09:55;6.38;;;5.32;;
72115;SDS011;59991;52.140;5.428;2022-09-13T00:10:26;6.10;;;5.53;;
72115;SDS011;59991;52.140;5.428;2022-09-13T00:10:58;7.25;;;5.97;;
72115;SDS011;59991;52.140;5.428;2022-09-13T00:11:29;6.07;;;5.47;;
72115;SDS011;59991;52.140;5.428;2022-09-13T00:12:01;6.80;;;5.55;;
72115;SDS011;59991;52.140;5.428;2022-09-13T00:12:33;7.22;;;5.15;;
72115;SDS011;59991;52.140;5.428;2022-09-13T00:13:05;7.30;;;5.10;;
72115;SDS011;59991;52.140;5.428;2022-09-13T00:13:36;5.80;;;5.28;;
72115;SDS011;59991;52.140;5.428;2022-09-13T00:14:08;7.38;;;5.85;;
72115;SDS011;59991;52.140;5.428;2022-09-13T00:14:40;5.97;;;5.45;;
72115;SDS011;59991;52.140;5.428;2022-09-13T00:15:11;5.57;;;5.07;;
72115;SDS011;59991;52.140;5.428;2022-09-13T00:15:44;8.05;;;5.80;;
72115;SDS011;59991;52.140;5.428;2022-09-13T00:16:18;6.25;;;5.75;;
72115;SDS011;59991;52.140;5.428;2022-09-13T00:16:51;4.90;;;4.35;;
72115;SDS011;59991;52.140;5.428;2022-09-13T00:17:23;5.90;;;5.50;;
72115;SDS011;59991;52.140;5.428;2022-09-13T00:17:56;5.90;;;5.40;;
72115;SDS011;59991;52.140;5.428;2022-09-13T00:18:27;6.13;;;5.60;;
72115;SDS011;59991;52.140;5.428;2022-09-13T00:18:58;6.20;;;5.60;;
72115;SDS011;59991;52.140;5.428;2022-09-13T00:19:30;6.38;;;5.05;;
72115;SDS011;59991;52.140;5.428;2022-09-13T00:20:02;6.85;;;4.68;;
72115;SDS011;59991;52.140;5.428;2022-09-13T00:20:34;5.72;;;5.22;;
72115;SDS011;59991;52.140;5.428;2022-09-13T00:21:09;7.93;;;5.88;;
72115;SDS011;59991;52.140;5.428;2022-09-13T00:21:42;5.68;;;5.05;;
72115;SDS011;59991;52.140;5.428;2022-09-13T00:22:20;6.40;;;5.90;;
72115;SDS011;59991;52.140;5.428;2022-09-13T00:22:51;6.18;;;5.57;;
72115;SDS011;59991;52.140;5.428;2022-09-13T00:23:23;6.18;;;5.40;;
72115;SDS011;59991;52.140;5.428;2022-09-13T00:23:54;6.07;;;5.30;;
72115;SDS011;59991;52.140;5.428;2022-09-13T00:24:26;5.35;;;4.95;;
72115;SDS011;59991;52.140;5.428;2022-09-13T00:24:57;6.38;;;5.90;;
72115;SDS011;59991;52.140;5.428;2022-09-13T00:25:29;7.45;;;5.68;;
72115;SDS011;59991;52.140;5.428;2022-09-13T00:26:07;6.38;;;5.80;;
72115;SDS011;59991;52.140;5.428;2022-09-13T00:26:40;5.53;;;5.03;;
72115;SDS011;59991;52.140;5.428;2022-09-13T00:27:11;6.90;;;4.70;;
72115;SDS011;59991;52.140;5.428;2022-09-13T00:27:43;6.80;;;5.88;;
72115;SDS011;59991;52.140;5.428;2022-09-13T00:28:15;6.65;;;4.97;;
72115;SDS011;59991;52.140;5.428;2022-09-13T00:28:53;6.15;;;5.55;;
72115;SDS011;59991;52.140;5.428;2022-09-13T00:29:26;8.43;;;5.47;;
72115;SDS011;59991;52.140;5.428;2022-09-13T00:29:58;5.70;;;5.20;;
72115;SDS011;59991;52.140;5.428;2022-09-13T00:30:30;6.57;;;5.50;;
72115;SDS011;59991;52.140;5.428;2022-09-13T00:31:02;6.43;;;5.82;;
72115;SDS011;59991;52.140;5.428;2022-09-13T00:31:35;7.13;;;6.43;;
72115;SDS011;59991;52.140;5.428;2022-09-13T00:32:06;7.85;;;5.85;;
72115;SDS011;59991;52.140;5.428;2022-09-13T00:32:38;6.85;;;6.07;;
72115;SDS011;59991;52.140;5.428;2022-09-13T00:33:09;6.15;;;5.68;;
72115;SDS011;59991;52.140;5.428;2022-09-13T00:33:41;7.10;;;6.38;;
72115;SDS011;59991;52.140;5.428;2022-09-13T00:34:12;6.72;;;6.13;;
72115;SDS011;59991;52.140;5.428;2022-09-13T00:34:44;6.93;;;6.23;;
72115;SDS011;59991;52.140;5.428;2022-09-13T00:35:15;6.60;;;6.00;;
72115;SDS011;59991;52.140;5.428;2022-09-13T00:35:46;8.07;;;6.60;;
72115;SDS011;59991;52.140;5.428;2022-09-13T00:36:18;7.18;;;6.57;;
72115;SDS011;59991;52.140;5.428;2022-09-13T00:36:52;7.32;;;6.35;;
72115;SDS011;59991;52.140;5.428;2022-09-13T00:37:23;6.45;;;5.85;;
72115;SDS011;59991;52.140;5.428;2022-09-13T00:37:54;6.50;;;5.95;;
72115;SDS011;59991;52.140;5.428;2022-09-13T00:38:26;7.55;;;6.70;;
72115;SDS011;59991;52.140;5.428;2022-09-13T00:39:00;7.15;;;6.05;;
72115;SDS011;59991;52.140;5.428;2022-09-13T00:39:31;8.27;;;7.10;;
72115;SDS011;59991;52.140;5.428;2022-09-13T00:40:03;6.77;;;6.17;;
72115;SDS011;59991;52.140;5.428;2022-09-13T00:40:36;6.97;;;6.38;;
72115;SDS011;59991;52.140;5.428;2022-09-13T00:41:11;6.63;;;6.03;;
72115;SDS011;59991;52.140;5.428;2022-09-13T00:41:45;6.95;;;5.93;;
72115;SDS011;59991;52.140;5.428;2022-09-13T00:42:17;6.43;;;5.60;;
72115;SDS011;59991;52.140;5.428;2022-09-13T00:42:48;8.77;;;6.22;;
72115;SDS011;59991;52.140;5.428;2022-09-13T00:43:36;7.43;;;6.22;;
72115;SDS011;59991;52.140;5.428;2022-09-13T00:45:16;7.35;;;6.75;;
72115;SDS011;59991;52.140;5.428;2022-09-13T00:45:49;6.88;;;6.18;;
72115;SDS011;59991;52.140;5.428;2022-09-13T00:46:37;7.17;;;6.37;;
72115;SDS011;59991;52.140;5.428;2022-09-13T00:47:10;8.25;;;6.15;;
72115;SDS011;59991;52.140;5.428;2022-09-13T00:48:23;8.20;;;7.03;;
72115;SDS011;59991;52.140;5.428;2022-09-13T00:49:17;11.40;;;7.15;;
72115;SDS011;59991;52.140;5.428;2022-09-13T00:50:15;6.47;;;5.97;;
72115;SDS011;59991;52.140;5.428;2022-09-13T00:50:54;11.32;;;6.68;;
72115;SDS011;59991;52.140;5.428;2022-09-13T00:51:26;6.78;;;6.18;;
72115;SDS011;59991;52.140;5.428;2022-09-13T00:51:59;7.55;;;6.85;;
72115;SDS011;59991;52.140;5.428;2022-09-13T00:52:35;7.90;;;6.40;;
72115;SDS011;59991;52.140;5.428;2022-09-13T00:53:47;6.40;;;5.80;;
72115;SDS011;59991;52.140;5.428;2022-09-13T00:54:22;7.32;;;6.05;;
72115;SDS011;59991;52.140;5.428;2022-09-13T00:55:04;7.43;;;6.35;;
72115;SDS011;59991;52.140;5.428;2022-09-13T00:55:43;6.93;;;6.18;;
72115;SDS011;59991;52.140;5.428;2022-09-13T00:56:24;6.47;;;5.97;;
72115;SDS011;59991;52.140;5.428;2022-09-13T00:57:03;6.93;;;6.28;;
72115;SDS011;59991;52.140;5.428;2022-09-13T00:57:35;6.63;;;6.07;;
72115;SDS011;59991;52.140;5.428;2022-09-13T00:58:09;7.57;;;6.75;;
72115;SDS011;59991;52.140;5.428;2022-09-13T00:58:47;6.32;;;5.72;;
72115;SDS011;59991;52.140;5.428;2022-09-13T00:59:29;7.03;;;6.33;;
72115;SDS011;59991;52.140;5.428;2022-09-13T01:00:10;6.30;;;5.70;;
72115;SDS011;59991;52.140;5.428;2022-09-13T01:00:43;6.28;;;5.68;;
72115;SDS011;59991;52.140;5.428;2022-09-13T01:01:16;6.68;;;6.07;;
72115;SDS011;59991;52.140;5.428;2022-09-13T01:01:51;6.65;;;6.05;;
72115;SDS011;59991;52.140;5.428;2022-09-13T01:02:25;6.15;;;5.65;;
72115;SDS011;59991;52.140;5.428;2022-09-13T01:02:59;8.00;;;6.35;;
72115;SDS011;59991;52.140;5.428;2022-09-13T01:03:34;7.00;;;6.40;;
72115;SDS011;59991;52.140;5.428;2022-09-13T01:04:07;7.68;;;7.00;;
72115;SDS011;59991;52.140;5.428;2022-09-13T01:04:42;6.50;;;5.88;;
72115;SDS011;59991;52.140;5.428;2022-09-13T01:05:15;7.17;;;6.57;;
72115;SDS011;59991;52.140;5.428;2022-09-13T01:05:55;6.65;;;5.95;;
72115;SDS011;59991;52.140;5.428;2022-09-13T01:06:32;7.47;;;6.28;;
72115;SDS011;59991;52.140;5.428;2022-09-13T01:07:07;6.63;;;6.13;;
72115;SDS011;59991;52.140;5.428;2022-09-13T01:07:41;6.60;;;5.88;;
72115;SDS011;59991;52.140;5.428;2022-09-13T01:08:13;6.72;;;5.68;;
72115;SDS011;59991;52.140;5.428;2022-09-13T01:08:53;6.35;;;5.85;;
72115;SDS011;59991;52.140;5.428;2022-09-13T01:09:26;8.82;;;6.15;;
72115;SDS011;59991;52.140;5.428;2022-09-13T01:10:00;7.75;;;7.05;;
72115;SDS011;59991;52.140;5.428;2022-09-13T01:10:34;6.95;;;6.45;;
72115;SDS011;59991;52.140;5.428;2022-09-13T01:11:10;7.00;;;6.33;;
72115;SDS011;59991;52.140;5.428;2022-09-13T01:11:54;7.10;;;6.40;;
72115;SDS011;59991;52.140;5.428;2022-09-13T01:12:42;6.97;;;5.82;;
72115;SDS011;59991;52.140;5.428;2022-09-13T01:13:22;7.38;;;6.68;;
72115;SDS011;59991;52.140;5.428;2022-09-13T01:13:55;6.63;;;6.03;;
72115;SDS011;59991;52.140;5.428;2022-09-13T01:14:28;7.07;;;6.38;;
72115;SDS011;59991;52.140;5.428;2022-09-13T01:15:03;7.30;;;6.40;;
72115;SDS011;59991;52.140;5.428;2022-09-13T01:15:36;6.97;;;6.28;;
72115;SDS011;59991;52.140;5.428;2022-09-13T01:16:07;8.05;;;7.25;;
72115;SDS011;59991;52.140;5.428;2022-09-13T01:16:39;8.82;;;6.93;;
72115;SDS011;59991;52.140;5.428;2022-09-13T01:17:13;7.03;;;6.43;;
72115;SDS011;59991;52.140;5.428;2022-09-13T01:17:44;9.43;;;7.75;;
72115;SDS011;59991;52.140;5.428;2022-09-13T01:18:16;7.32;;;6.60;;
72115;SDS011;59991;52.140;5.428;2022-09-13T01:18:48;8.52;;;7.45;;
72115;SDS011;59991;52.140;5.428;2022-09-13T01:19:20;7.18;;;6.47;;
72115;SDS011;59991;52.140;5.428;2022-09-13T01:19:51;8.55;;;7.10;;
72115;SDS011;59991;52.140;5.428;2022-09-13T01:20:24;7.40;;;6.60;;
72115;SDS011;59991;52.140;5.428;2022-09-13T01:21:27;7.35;;;6.65;;
72115;SDS011;59991;52.140;5.428;2022-09-13T01:22:23;6.47;;;5.88;;
72115;SDS011;59991;52.140;5.428;2022-09-13T01:23:21;8.15;;;6.55;;
72115;SDS011;59991;52.140;5.428;2022-09-13T01:25:14;6.82;;;6.18;;
72115;SDS011;59991;52.140;5.428;2022-09-13T01:27:14;6.95;;;6.35;;
72115;SDS011;59991;52.140;5.428;2022-09-13T01:31:13;6.90;;;6.25;;
72115;SDS011;59991;52.140;5.428;2022-09-13T01:34:12;7.20;;;6.50;;
72115;SDS011;59991;52.140;5.428;2022-09-13T01:37:57;8.63;;;7.18;;
72115;SDS011;59991;52.140;5.428;2022-09-13T01:38:31;7.30;;;6.43;;
72115;SDS011;59991;52.140;5.428;2022-09-13T01:39:45;6.50;;;5.90;;
72115;SDS011;59991;52.140;5.428;2022-09-13T01:40:31;7.93;;;7.32;;
72115;SDS011;59991;52.140;5.428;2022-09-13T01:41:39;6.85;;;6.18;;
72115;SDS011;59991;52.140;5.428;2022-09-13T01:42:27;6.80;;;5.97;;
72115;SDS011;59991;52.140;5.428;2022-09-13T01:43:16;8.60;;;6.45;;
72115;SDS011;59991;52.140;5.428;2022-09-13T01:43:52;8.70;;;6.57;;
72115;SDS011;59991;52.140;5.428;2022-09-13T01:44:38;9.50;;;6.93;;
72115;SDS011;59991;52.140;5.428;2022-09-13T01:45:38;6.88;;;6.20;;
72115;SDS011;59991;52.140;5.428;2022-09-13T01:47:45;6.95;;;6.38;;
72115;SDS011;59991;52.140;5.428;2022-09-13T01:49:18;8.15;;;7.30;;
72115;SDS011;59991;52.140;5.428;2022-09-13T01:50:45;11.20;;;8.15;;
72115;SDS011;59991;52.140;5.428;2022-09-13T01:51:59;9.07;;;7.57;;
72115;SDS011;59991;52.140;5.428;2022-09-13T01:53:48;10.88;;;6.70;;
72115;SDS011;59991;52.140;5.428;2022-09-13T01:54:33;7.05;;;6.40;;
72115;SDS011;59991;52.140;5.428;2022-09-13T01:55:17;8.60;;;7.70;;
72115;SDS011;59991;52.140;5.428;2022-09-13T01:55:58;8.20;;;7.10;;
72115;SDS011;59991;52.140;5.428;2022-09-13T01:56:37;7.07;;;6.35;;
72115;SDS011;59991;52.140;5.428;2022-09-13T01:57:16;7.60;;;6.50;;
72115;SDS011;59991;52.140;5.428;2022-09-13T01:59:36;7.47;;;6.78;;
72115;SDS011;59991;52.140;5.428;2022-09-13T02:00:17;8.02;;;7.25;;
72115;SDS011;59991;52.140;5.428;2022-09-13T02:01:46;7.28;;;6.43;;
72115;SDS011;59991;52.140;5.428;2022-09-13T02:02:31;9.38;;;6.97;;
72115;SDS011;59991;52.140;5.428;2022-09-13T02:03:11;9.70;;;8.13;;
72115;SDS011;59991;52.140;5.428;2022-09-13T02:03:52;8.23;;;7.38;;
72115;SDS011;59991;52.140;5.428;2022-09-13T02:04:31;8.50;;;7.00;;
72115;SDS011;59991;52.140;5.428;2022-09-13T02:05:09;9.60;;;7.15;;
72115;SDS011;59991;52.140;5.428;2022-09-13T02:05:57;7.60;;;6.90;;
72115;SDS011;59991;52.140;5.428;2022-09-13T02:06:35;8.38;;;7.43;;
72115;SDS011;59991;52.140;5.428;2022-09-13T02:07:34;9.63;;;7.07;;
72115;SDS011;59991;52.140;5.428;2022-09-13T02:08:12;7.07;;;6.43;;
72115;SDS011;59991;52.140;5.428;2022-09-13T02:08:50;7.78;;;6.35;;
72115;SDS011;59991;52.140;5.428;2022-09-13T02:09:25;8.35;;;6.82;;
72115;SDS011;59991;52.140;5.428;2022-09-13T02:10:03;7.47;;;6.68;;
72115;SDS011;59991;52.140;5.428;2022-09-13T02:10:46;6.75;;;6.15;;
72115;SDS011;59991;52.140;5.428;2022-09-13T02:11:22;6.63;;;6.03;;
72115;SDS011;59991;52.140;5.428;2022-09-13T02:11:56;7.80;;;5.70;;
72115;SDS011;59991;52.140;5.428;2022-09-13T02:12:33;8.70;;;6.45;;
72115;SDS011;59991;52.140;5.428;2022-09-13T02:13:10;7.45;;;6.70;;
72115;SDS011;59991;52.140;5.428;2022-09-13T02:13:53;7.43;;;6.72;;
72115;SDS011;59991;52.140;5.428;2022-09-13T02:14:31;7.45;;;6.68;;
72115;SDS011;59991;52.140;5.428;2022-09-13T02:15:11;7.82;;;7.13;;
72115;SDS011;59991;52.140;5.428;2022-09-13T02:15:46;7.32;;;6.63;;
72115;SDS011;59991;52.140;5.428;2022-09-13T02:16:29;7.32;;;6.72;;
72115;SDS011;59991;52.140;5.428;2022-09-13T02:17:08;7.40;;;6.13;;
72115;SDS011;59991;52.140;5.428;2022-09-13T02:18:09;7.40;;;6.80;;
72115;SDS011;59991;52.140;5.428;2022-09-13T02:18:43;9.13;;;7.05;;
72115;SDS011;59991;52.140;5.428;2022-09-13T02:19:21;8.25;;;7.07;;
72115;SDS011;59991;52.140;5.428;2022-09-13T02:20:02;8.40;;;6.97;;
72115;SDS011;59991;52.140;5.428;2022-09-13T02:20:40;8.02;;;7.22;;
72115;SDS011;59991;52.140;5.428;2022-09-13T02:21:16;7.28;;;6.68;;
72115;SDS011;59991;52.140;5.428;2022-09-13T02:21:52;11.45;;;7.97;;
72115;SDS011;59991;52.140;5.428;2022-09-13T02:22:35;7.53;;;6.68;;
72115;SDS011;59991;52.140;5.428;2022-09-13T02:23:46;8.48;;;6.82;;
72115;SDS011;59991;52.140;5.428;2022-09-13T02:24:24;7.57;;;6.88;;
72115;SDS011;59991;52.140;5.428;2022-09-13T02:25:06;7.50;;;6.80;;
72115;SDS011;59991;52.140;5.428;2022-09-13T02:25:42;8.15;;;7.45;;
72115;SDS011;59991;52.140;5.428;2022-09-13T02:26:16;8.18;;;7.38;;
72115;SDS011;59991;52.140;5.428;2022-09-13T02:26:51;7.75;;;7.00;;
72115;SDS011;59991;52.140;5.428;2022-09-13T02:27:25;8.13;;;7.40;;
72115;SDS011;59991;52.140;5.428;2022-09-13T02:28:03;8.48;;;7.55;;
72115;SDS011;59991;52.140;5.428;2022-09-13T02:28:43;7.90;;;7.20;;
72115;SDS011;59991;52.140;5.428;2022-09-13T02:29:20;8.55;;;7.65;;
72115;SDS011;59991;52.140;5.428;2022-09-13T02:30:01;8.02;;;7.22;;
72115;SDS011;59991;52.140;5.428;2022-09-13T02:30:38;7.40;;;6.65;;
72115;SDS011;59991;52.140;5.428;2022-09-13T02:31:17;8.43;;;7.57;;
72115;SDS011;59991;52.140;5.428;2022-09-13T02:32:37;7.63;;;6.85;;
72115;SDS011;59991;52.140;5.428;2022-09-13T02:33:48;9.35;;;7.57;;
72115;SDS011;59991;52.140;5.428;2022-09-13T02:34:26;8.32;;;6.25;;
72115;SDS011;59991;52.140;5.428;2022-09-13T02:35:04;7.63;;;6.82;;
72115;SDS011;59991;52.140;5.428;2022-09-13T02:36:34;8.85;;;7.68;;
72115;SDS011;59991;52.140;5.428;2022-09-13T02:37:10;7.35;;;6.75;;
72115;SDS011;59991;52.140;5.428;2022-09-13T02:37:43;8.17;;;7.37;;
72115;SDS011;59991;52.140;5.428;2022-09-13T02:38:55;10.48;;;7.43;;
72115;SDS011;59991;52.140;5.428;2022-09-13T02:39:30;7.68;;;6.88;;
72115;SDS011;59991;52.140;5.428;2022-09-13T02:40:06;9.07;;;7.22;;
72115;SDS011;59991;52.140;5.428;2022-09-13T02:40:52;7.55;;;6.82;;
72115;SDS011;59991;52.140;5.428;2022-09-13T02:42:09;7.18;;;6.57;;
72115;SDS011;59991;52.140;5.428;2022-09-13T02:42:49;8.70;;;7.03;;
72115;SDS011;59991;52.140;5.428;2022-09-13T02:43:38;7.45;;;6.70;;
72115;SDS011;59991;52.140;5.428;2022-09-13T02:44:25;7.50;;;6.70;;
72115;SDS011;59991;52.140;5.428;2022-09-13T02:45:04;8.50;;;6.38;;
72115;SDS011;59991;52.140;5.428;2022-09-13T02:45:47;6.35;;;5.75;;
72115;SDS011;59991;52.140;5.428;2022-09-13T02:46:30;6.78;;;5.93;;
72115;SDS011;59991;52.140;5.428;2022-09-13T02:47:20;5.93;;;5.43;;
72115;SDS011;59991;52.140;5.428;2022-09-13T02:48:08;6.53;;;5.93;;
72115;SDS011;59991;52.140;5.428;2022-09-13T02:48:48;6.95;;;6.35;;
72115;SDS011;59991;52.140;5.428;2022-09-13T02:49:33;8.50;;;7.80;;
72115;SDS011;59991;52.140;5.428;2022-09-13T02:51:02;8.13;;;6.88;;
72115;SDS011;59991;52.140;5.428;2022-09-13T02:51:43;7.50;;;6.80;;
72115;SDS011;59991;52.140;5.428;2022-09-13T02:52:34;7.65;;;6.90;;
72115;SDS011;59991;52.140;5.428;2022-09-13T02:54:19;7.07;;;6.47;;
72115;SDS011;59991;52.140;5.428;2022-09-13T02:55:06;7.80;;;7.00;;
72115;SDS011;59991;52.140;5.428;2022-09-13T02:55:44;7.57;;;6.88;;
72115;SDS011;59991;52.140;5.428;2022-09-13T02:56:39;7.95;;;7.15;;
72115;SDS011;59991;52.140;5.428;2022-09-13T02:57:20;7.75;;;6.95;;
72115;SDS011;59991;52.140;5.428;2022-09-13T02:59:16;7.80;;;7.00;;
72115;SDS011;59991;52.140;5.428;2022-09-13T02:59:50;7.70;;;6.90;;
72115;SDS011;59991;52.140;5.428;2022-09-13T03:00:22;9.10;;;7.65;;
72115;SDS011;59991;52.140;5.428;2022-09-13T03:00:53;6.43;;;5.85;;
72115;SDS011;59991;52.140;5.428;2022-09-13T03:01:25;7.05;;;6.32;;
72115;SDS011;59991;52.140;5.428;2022-09-13T03:02:41;7.38;;;6.75;;
72115;SDS011;59991;52.140;5.428;2022-09-13T03:03:14;7.28;;;6.57;;
72115;SDS011;59991;52.140;5.428;2022-09-13T03:03:47;7.57;;;6.90;;
72115;SDS011;59991;52.140;5.428;2022-09-13T03:04:18;7.38;;;6.43;;
72115;SDS011;59991;52.140;5.428;2022-09-13T03:04:50;6.63;;;6.03;;
72115;SDS011;59991;52.140;5.428;2022-09-13T03:05:22;7.33;;;6.63;;
72115;SDS011;59991;52.140;5.428;2022-09-13T03:05:53;7.13;;;6.43;;
72115;SDS011;59991;52.140;5.428;2022-09-13T03:06:25;7.03;;;6.43;;
72115;SDS011;59991;52.140;5.428;2022-09-13T03:06:59;8.18;;;7.43;;
72115;SDS011;59991;52.140;5.428;2022-09-13T03:07:31;8.27;;;7.65;;
72115;SDS011;59991;52.140;5.428;2022-09-13T03:08:02;11.77;;;6.45;;
72115;SDS011;59991;52.140;5.428;2022-09-13T03:08:36;7.38;;;6.57;;
72115;SDS011;59991;52.140;5.428;2022-09-13T03:09:08;7.22;;;6.53;;
72115;SDS011;59991;52.140;5.428;2022-09-13T03:10:23;8.85;;;7.00;;
72115;SDS011;59991;52.140;5.428;2022-09-13T03:13:57;7.10;;;6.50;;
72115;SDS011;59991;52.140;5.428;2022-09-13T03:16:29;6.60;;;6.00;;
72115;SDS011;59991;52.140;5.428;2022-09-13T03:17:29;7.22;;;6.43;;
72115;SDS011;59991;52.140;5.428;2022-09-13T03:20:02;7.23;;;6.23;;
72115;SDS011;59991;52.140;5.428;2022-09-13T03:20:43;8.13;;;7.35;;
72115;SDS011;59991;52.140;5.428;2022-09-13T03:21:29;7.30;;;6.22;;
72115;SDS011;59991;52.140;5.428;2022-09-13T03:26:22;8.35;;;7.57;;
72115;SDS011;59991;52.140;5.428;2022-09-13T03:27:08;7.90;;;7.20;;
72115;SDS011;59991;52.140;5.428;2022-09-13T03:27:58;7.83;;;7.13;;
72115;SDS011;59991;52.140;5.428;2022-09-13T03:30:24;8.38;;;7.57;;
72115;SDS011;59991;52.140;5.428;2022-09-13T03:30:57;8.07;;;7.38;;
72115;SDS011;59991;52.140;5.428;2022-09-13T03:31:47;8.30;;;7.00;;
72115;SDS011;59991;52.140;5.428;2022-09-13T03:32:41;7.30;;;6.70;;
72115;SDS011;59991;52.140;5.428;2022-09-13T03:33:27;8.80;;;6.82;;
72115;SDS011;59991;52.140;5.428;2022-09-13T03:34:09;8.05;;;7.35;;
72115;SDS011;59991;52.140;5.428;2022-09-13T03:37:26;8.55;;;6.35;;
72115;SDS011;59991;52.140;5.428;2022-09-13T03:38:40;8.18;;;7.20;;
72115;SDS011;59991;52.140;5.428;2022-09-13T03:40:15;7.57;;;6.78;;
72115;SDS011;59991;52.140;5.428;2022-09-13T03:41:08;8.25;;;6.90;;
72115;SDS011;59991;52.140;5.428;2022-09-13T03:41:49;7.25;;;6.65;;
72115;SDS011;59991;52.140;5.428;2022-09-13T03:42:33;8.75;;;6.82;;
72115;SDS011;59991;52.140;5.428;2022-09-13T03:44:06;6.95;;;6.30;;
72115;SDS011;59991;52.140;5.428;2022-09-13T03:44:41;8.05;;;7.30;;
72115;SDS011;59991;52.140;5.428;2022-09-13T03:45:16;8.90;;;7.82;;
72115;SDS011;59991;52.140;5.428;2022-09-13T03:45:53;7.78;;;7.13;;
72115;SDS011;59991;52.140;5.428;2022-09-13T03:46:30;8.57;;;7.78;;
72115;SDS011;59991;52.140;5.428;2022-09-13T03:47:05;8.13;;;7.32;;
72115;SDS011;59991;52.140;5.428;2022-09-13T03:47:39;9.88;;;8.07;;
72115;SDS011;59991;52.140;5.428;2022-09-13T03:48:12;7.55;;;6.25;;
72115;SDS011;59991;52.140;5.428;2022-09-13T03:48:45;7.22;;;5.85;;
72115;SDS011;59991;52.140;5.428;2022-09-13T03:49:19;7.40;;;6.73;;
72115;SDS011;59991;52.140;5.428;2022-09-13T03:49:54;6.53;;;5.93;;
72115;SDS011;59991;52.140;5.428;2022-09-13T03:50:27;7.80;;;7.03;;
72115;SDS011;59991;52.140;5.428;2022-09-13T03:50:59;8.02;;;6.72;;
72115;SDS011;59991;52.140;5.428;2022-09-13T03:51:31;6.55;;;5.95;;
72115;SDS011;59991;52.140;5.428;2022-09-13T03:52:02;6.60;;;6.10;;
72115;SDS011;59991;52.140;5.428;2022-09-13T03:52:34;7.50;;;5.60;;
72115;SDS011;59991;52.140;5.428;2022-09-13T03:53:08;7.60;;;7.00;;
72115;SDS011;59991;52.140;5.428;2022-09-13T03:53:44;8.85;;;6.70;;
72115;SDS011;59991;52.140;5.428;2022-09-13T03:54:22;7.65;;;6.03;;
72115;SDS011;59991;52.140;5.428;2022-09-13T03:54:57;7.00;;;6.30;;
72115;SDS011;59991;52.140;5.428;2022-09-13T03:55:29;7.65;;;6.82;;
72115;SDS011;59991;52.140;5.428;2022-09-13T03:56:15;6.82;;;6.30;;
72115;SDS011;59991;52.140;5.428;2022-09-13T03:57:40;7.63;;;6.90;;
72115;SDS011;59991;52.140;5.428;2022-09-13T03:58:12;9.73;;;7.03;;
72115;SDS011;59991;52.140;5.428;2022-09-13T03:58:46;8.15;;;7.43;;
72115;SDS011;59991;52.140;5.428;2022-09-13T03:59:18;7.47;;;6.72;;
72115;SDS011;59991;52.140;5.428;2022-09-13T03:59:54;9.00;;;7.18;;
72115;SDS011;59991;52.140;5.428;2022-09-13T04:00:26;7.53;;;6.80;;
72115;SDS011;59991;52.140;5.428;2022-09-13T04:00:59;9.50;;;7.57;;
72115;SDS011;59991;52.140;5.428;2022-09-13T04:01:31;8.80;;;7.70;;
72115;SDS011;59991;52.140;5.428;2022-09-13T04:02:02;8.50;;;7.70;;
72115;SDS011;59991;52.140;5.428;2022-09-13T04:02:34;7.68;;;6.90;;
72115;SDS011;59991;52.140;5.428;2022-09-13T04:03:06;7.65;;;6.95;;
72115;SDS011;59991;52.140;5.428;2022-09-13T04:03:38;8.77;;;7.53;;
72115;SDS011;59991;52.140;5.428;2022-09-13T04:04:10;7.38;;;6.65;;
72115;SDS011;59991;52.140;5.428;2022-09-13T04:04:42;7.70;;;6.72;;
72115;SDS011;59991;52.140;5.428;2022-09-13T04:05:14;9.80;;;7.50;;
72115;SDS011;59991;52.140;5.428;2022-09-13T04:05:45;8.88;;;6.97;;
72115;SDS011;59991;52.140;5.428;2022-09-13T04:06:17;7.83;;;6.53;;
72115;SDS011;59991;52.140;5.428;2022-09-13T04:06:51;7.78;;;6.68;;
72115;SDS011;59991;52.140;5.428;2022-09-13T04:07:23;7.82;;;6.90;;
72115;SDS011;59991;52.140;5.428;2022-09-13T04:07:56;8.70;;;8.00;;
72115;SDS011;59991;52.140;5.428;2022-09-13T04:08:27;7.22;;;6.53;;
72115;SDS011;59991;52.140;5.428;2022-09-13T04:08:58;7.68;;;6.40;;
72115;SDS011;59991;52.140;5.428;2022-09-13T04:09:30;10.07;;;6.93;;
72115;SDS011;59991;52.140;5.428;2022-09-13T04:10:02;7.95;;;7.15;;
72115;SDS011;59991;52.140;5.428;2022-09-13T04:10:34;9.23;;;7.10;;
72115;SDS011;59991;52.140;5.428;2022-09-13T04:11:07;7.90;;;7.18;;
72115;SDS011;59991;52.140;5.428;2022-09-13T04:11:39;7.57;;;6.37;;
72115;SDS011;59991;52.140;5.428;2022-09-13T04:12:12;8.27;;;7.43;;
72115;SDS011;59991;52.140;5.428;2022-09-13T04:12:44;7.88;;;7.10;;
72115;SDS011;59991;52.140;5.428;2022-09-13T04:13:15;7.38;;;6.68;;
72115;SDS011;59991;52.140;5.428;2022-09-13T04:13:47;9.00;;;8.30;;
72115;SDS011;59991;52.140;5.428;2022-09-13T04:14:18;8.65;;;7.75;;
72115;SDS011;59991;52.140;5.428;2022-09-13T04:14:50;9.88;;;7.85;;
72115;SDS011;59991;52.140;5.428;2022-09-13T04:15:22;8.38;;;7.57;;
72115;SDS011;59991;52.140;5.428;2022-09-13T04:15:58;9.38;;;8.38;;
72115;SDS011;59991;52.140;5.428;2022-09-13T04:16:31;8.30;;;7.55;;
72115;SDS011;59991;52.140;5.428;2022-09-13T04:17:02;12.53;;;8.73;;
72115;SDS011;59991;52.140;5.428;2022-09-13T04:17:34;11.15;;;8.25;;
72115;SDS011;59991;52.140;5.428;2022-09-13T04:18:06;10.07;;;7.90;;
72115;SDS011;59991;52.140;5.428;2022-09-13T04:18:39;9.65;;;8.23;;
72115;SDS011;59991;52.140;5.428;2022-09-13T04:19:10;9.43;;;7.90;;
72115;SDS011;59991;52.140;5.428;2022-09-13T04:19:42;8.57;;;7.22;;
72115;SDS011;59991;52.140;5.428;2022-09-13T04:20:15;9.45;;;8.60;;
72115;SDS011;59991;52.140;5.428;2022-09-13T04:20:53;8.65;;;7.88;;
72115;SDS011;59991;52.140;5.428;2022-09-13T04:21:25;8.93;;;8.13;;
72115;SDS011;59991;52.140;5.428;2022-09-13T04:21:58;7.32;;;6.63;;
72115;SDS011;59991;52.140;5.428;2022-09-13T04:22:29;9.23;;;7.47;;
72115;SDS011;59991;52.140;5.428;2022-09-13T04:23:01;8.40;;;7.43;;
72115;SDS011;59991;52.140;5.428;2022-09-13T04:23:32;8.75;;;7.90;;
72115;SDS011;59991;52.140;5.428;2022-09-13T04:24:04;8.85;;;7.95;;
72115;SDS011;59991;52.140;5.428;2022-09-13T04:24:35;8.13;;;7.32;;
72115;SDS011;59991;52.140;5.428;2022-09-13T04:25:07;8.60;;;7.35;;
72115;SDS011;59991;52.140;5.428;2022-09-13T04:25:39;10.10;;;7.95;;
72115;SDS011;59991;52.140;5.428;2022-09-13T04:26:10;9.25;;;8.38;;
72115;SDS011;59991;52.140;5.428;2022-09-13T04:26:42;8.68;;;7.88;;
72115;SDS011;59991;52.140;5.428;2022-09-13T04:27:15;8.57;;;7.78;;
72115;SDS011;59991;52.140;5.428;2022-09-13T04:27:47;7.53;;;6.83;;
72115;SDS011;59991;52.140;5.428;2022-09-13T04:28:20;7.72;;;6.97;;